createdAt,value
2022-08-22T00:00:19.152Z,18.84
2022-08-22T00:02:59.713Z,19.55
2022-08-22T00:03:02.035Z,19.55
2022-08-22T00:03:10.012Z,19.28
2022-08-22T00:03:15.318Z,18.84
2022-08-22T00:05:54.532Z,18.82
2022-08-22T00:08:33.836Z,18.80
2022-08-22T00:11:29.374Z,18.77
2022-08-22T00:14:01.991Z,18.80
2022-08-22T00:16:34.329Z,18.78
2022-08-22T00:19:08.291Z,18.77
2022-08-22T00:21:47.777Z,18.75
2022-08-22T00:24:21.068Z,18.75
2022-08-22T00:26:53.971Z,18.75
2022-08-22T00:29:27.766Z,18.71
2022-08-22T00:32:15.802Z,18.70
2022-08-22T00:34:51.235Z,18.72
2022-08-22T00:37:27.504Z,18.70
2022-08-22T00:40:09.075Z,18.70
2022-08-22T00:42:54.858Z,18.67
2022-08-22T00:45:30.879Z,18.66
2022-08-22T00:48:03.975Z,18.65
2022-08-22T00:50:49.444Z,18.62
2022-08-22T00:53:31.948Z,18.59
2022-08-22T00:56:17.488Z,18.57
2022-08-22T00:59:23.415Z,18.52
2022-08-22T01:02:09.934Z,18.49
2022-08-22T01:04:55.278Z,18.46
2022-08-22T01:07:25.080Z,18.41
2022-08-22T01:10:24.070Z,18.40
2022-08-22T01:13:02.262Z,18.37
2022-08-22T01:15:30.709Z,18.33
2022-08-22T01:18:09.520Z,18.27
2022-08-22T01:20:55.595Z,18.21
2022-08-22T01:23:37.688Z,18.20
2022-08-22T01:26:22.754Z,18.16
2022-08-22T01:29:28.373Z,18.15
2022-08-22T01:32:08.001Z,18.12
2022-08-22T01:34:40.910Z,18.06
2022-08-22T01:37:33.859Z,18.01
2022-08-22T01:40:05.800Z,17.99
2022-08-22T01:42:35.395Z,18.00
2022-08-22T01:45:05.190Z,18.02
2022-08-22T01:47:37.490Z,18.02
2022-08-22T01:50:23.232Z,18.03
2022-08-22T01:53:02.466Z,18.01
2022-08-22T01:55:29.361Z,17.98
2022-08-22T01:57:58.934Z,17.93
2022-08-22T02:00:35.207Z,17.85
2022-08-22T02:03:03.519Z,17.85
2022-08-22T02:05:37.470Z,17.84
2022-08-22T02:08:23.388Z,17.87
2022-08-22T02:11:02.453Z,17.85
2022-08-22T02:13:29.332Z,17.80
2022-08-22T02:16:27.322Z,17.75
2022-08-22T02:19:01.002Z,17.71
2022-08-22T02:21:47.257Z,17.67
2022-08-22T02:24:17.054Z,17.64
2022-08-22T02:27:04.519Z,17.60
2022-08-22T02:29:31.297Z,17.55
2022-08-22T02:32:01.647Z,17.57
2022-08-22T02:34:44.087Z,17.57
2022-08-22T02:37:16.961Z,17.56
2022-08-22T02:39:43.818Z,17.55
2022-08-22T02:42:16.491Z,17.57
2022-08-22T02:44:48.349Z,17.58
2022-08-22T02:47:16.693Z,17.60
2022-08-22T02:49:47.492Z,17.61
2022-08-22T02:52:34.202Z,17.64
2022-08-22T02:55:06.502Z,17.68
2022-08-22T02:57:39.307Z,17.70
2022-08-22T03:00:39.072Z,17.73
2022-08-22T03:03:07.152Z,17.77
2022-08-22T03:05:36.572Z,17.79
2022-08-22T03:08:05.752Z,17.80
2022-08-22T03:10:44.411Z,17.82
2022-08-22T03:13:17.089Z,17.83
2022-08-22T03:15:49.250Z,17.84
2022-08-22T03:18:31.498Z,17.85
2022-08-22T03:21:00.514Z,17.87
2022-08-22T03:23:39.468Z,17.88
2022-08-22T03:26:29.224Z,17.89
2022-08-22T03:29:31.256Z,17.91
2022-08-22T03:32:24.252Z,17.95
2022-08-22T03:34:58.433Z,18.00
2022-08-22T03:37:40.853Z,18.04
2022-08-22T03:40:19.860Z,18.04
2022-08-22T03:42:52.656Z,18.07
2022-08-22T03:45:38.677Z,18.09
2022-08-22T03:48:17.924Z,18.14
2022-08-22T03:51:03.540Z,18.18
2022-08-22T03:53:33.593Z,18.22
2022-08-22T03:56:09.556Z,18.25
2022-08-22T03:58:45.604Z,18.26
2022-08-22T04:01:35.879Z,18.25
2022-08-22T04:04:05.802Z,18.26
2022-08-22T04:06:41.600Z,18.27
2022-08-22T04:09:11.380Z,18.28
2022-08-22T04:11:57.792Z,18.28
2022-08-22T04:14:44.299Z,18.31
2022-08-22T04:17:11.201Z,18.27
2022-08-22T04:19:54.336Z,18.26
2022-08-22T04:22:26.018Z,18.28
2022-08-22T04:24:55.992Z,18.26
2022-08-22T04:27:40.670Z,18.23
2022-08-22T04:30:13.721Z,18.23
2022-08-22T04:33:00.182Z,18.27
2022-08-22T04:35:31.861Z,18.29
2022-08-22T04:38:01.904Z,18.33
2022-08-22T04:40:28.705Z,18.37
2022-08-22T04:42:59.722Z,18.41
2022-08-22T04:45:29.872Z,18.45
2022-08-22T04:48:01.633Z,18.47
2022-08-22T04:50:57.960Z,18.50
2022-08-22T04:53:27.458Z,18.54
2022-08-22T04:55:54.276Z,18.62
2022-08-22T04:58:23.889Z,18.72
2022-08-22T05:00:56.975Z,18.81
2022-08-22T05:03:24.368Z,18.94
2022-08-22T05:05:51.768Z,19.05
2022-08-22T05:08:21.553Z,19.16
2022-08-22T05:10:48.471Z,19.34
2022-08-22T05:13:30.318Z,19.58
2022-08-22T05:15:59.027Z,19.74
2022-08-22T05:18:29.520Z,19.80
2022-08-22T05:20:57.601Z,19.86
2022-08-22T05:23:27.725Z,19.99
2022-08-22T05:25:56.623Z,20.07
2022-08-22T05:28:54.610Z,20.20
2022-08-22T05:31:24.044Z,20.29
2022-08-22T05:33:52.304Z,20.37
2022-08-22T05:36:38.531Z,20.41
2022-08-22T05:39:10.957Z,20.48
2022-08-22T05:41:38.867Z,20.49
2022-08-22T05:44:07.584Z,20.50
2022-08-22T05:46:42.455Z,20.52
2022-08-22T05:49:31.990Z,20.51
2022-08-22T05:52:04.848Z,20.49
2022-08-22T05:54:36.269Z,20.44
2022-08-22T05:57:11.690Z,20.37
2022-08-22T05:59:38.924Z,20.42
2022-08-22T06:02:22.049Z,20.46
2022-08-22T06:04:51.908Z,20.39
2022-08-22T06:07:19.293Z,20.43
2022-08-22T06:09:46.250Z,20.51
2022-08-22T06:12:29.609Z,20.54
2022-08-22T06:14:59.525Z,20.68
2022-08-22T06:17:31.714Z,21.00
2022-08-22T06:19:58.634Z,21.14
2022-08-22T06:22:26.449Z,21.25
2022-08-22T06:24:55.212Z,21.30
2022-08-22T06:27:23.386Z,21.35
2022-08-22T06:29:58.467Z,21.30
2022-08-22T06:32:38.238Z,21.19
2022-08-22T06:35:16.587Z,21.16
2022-08-22T06:37:45.182Z,21.17
2022-08-22T06:40:20.078Z,21.29
2022-08-22T06:42:49.629Z,21.52
2022-08-22T06:45:17.994Z,21.77
2022-08-22T06:47:50.220Z,22.14
2022-08-22T06:50:23.783Z,22.54
2022-08-22T06:52:58.572Z,22.62
2022-08-22T06:55:26.903Z,22.67
2022-08-22T06:57:55.153Z,22.73
2022-08-22T07:00:22.179Z,22.83
2022-08-22T07:02:59.378Z,22.89
2022-08-22T07:05:29.996Z,23.17
2022-08-22T07:07:57.270Z,23.32
2022-08-22T07:10:24.502Z,23.45
2022-08-22T07:12:52.561Z,23.52
2022-08-22T07:15:36.700Z,23.61
2022-08-22T07:18:24.959Z,23.62
2022-08-22T07:20:56.331Z,23.77
2022-08-22T07:23:34.071Z,23.93
2022-08-22T07:26:04.022Z,24.08
2022-08-22T07:28:36.833Z,24.34
2022-08-22T07:31:35.296Z,24.55
2022-08-22T07:34:15.069Z,24.46
2022-08-22T07:36:50.179Z,24.63
2022-08-22T07:39:22.674Z,24.59
2022-08-22T07:41:59.728Z,24.73
2022-08-22T07:44:28.945Z,24.72
2022-08-22T07:47:01.233Z,24.67
2022-08-22T07:49:32.701Z,24.65
2022-08-22T07:52:01.183Z,24.73
2022-08-22T07:54:31.909Z,24.97
2022-08-22T07:57:02.704Z,25.24
2022-08-22T07:59:29.903Z,25.48
2022-08-22T08:01:58.554Z,25.79
2022-08-22T08:04:29.114Z,26.02
2022-08-22T08:06:56.840Z,26.30
2022-08-22T08:09:23.975Z,26.61
2022-08-22T08:11:51.822Z,26.96
2022-08-22T08:14:20.073Z,27.14
2022-08-22T08:16:56.748Z,27.15
2022-08-22T08:19:24.957Z,27.28
2022-08-22T08:21:53.709Z,27.71
2022-08-22T08:24:25.754Z,27.83
2022-08-22T08:27:13.366Z,27.78
2022-08-22T08:29:45.793Z,27.72
2022-08-22T08:32:12.898Z,28.09
2022-08-22T08:34:42.746Z,28.53
2022-08-22T08:37:12.999Z,28.82
2022-08-22T08:39:50.942Z,28.71
2022-08-22T08:42:41.309Z,28.37
2022-08-22T08:45:17.395Z,28.44
2022-08-22T08:47:52.745Z,28.47
2022-08-22T08:50:31.968Z,28.53
2022-08-22T08:53:24.104Z,28.63
2022-08-22T08:55:54.162Z,29.09
2022-08-22T08:58:28.184Z,29.26
2022-08-22T09:01:02.296Z,29.08
2022-08-22T09:04:07.159Z,28.98
2022-08-22T09:07:02.475Z,28.08
2022-08-22T09:09:32.095Z,27.86
2022-08-22T09:12:20.310Z,28.04
2022-08-22T09:15:14.484Z,28.37
2022-08-22T09:17:48.581Z,28.72
2022-08-22T09:20:35.874Z,29.13
2022-08-22T09:23:18.260Z,29.32
2022-08-22T09:25:51.455Z,29.62
2022-08-22T09:28:29.466Z,29.63
2022-08-22T09:34:24.159Z,30.47
2022-08-22T09:37:08.070Z,30.78
2022-08-22T09:42:44.882Z,32.44
2022-08-22T09:45:37.009Z,32.91
2022-08-22T09:48:26.634Z,32.92
2022-08-22T09:52:33.263Z,33.32
2022-08-22T09:54:05.430Z,33.60
2022-08-22T09:56:50.866Z,33.66
2022-08-22T09:59:40.835Z,33.93
2022-08-22T10:02:58.254Z,33.30
2022-08-22T10:05:56.888Z,33.24
2022-08-22T10:08:37.829Z,33.44
2022-08-22T10:11:11.369Z,33.27
2022-08-22T10:13:57.305Z,33.45
2022-08-22T10:16:33.989Z,33.54
2022-08-22T10:19:23.028Z,34.09
2022-08-22T10:21:50.585Z,34.65
2022-08-22T10:24:25.492Z,35.04
2022-08-22T10:26:59.111Z,35.28
2022-08-22T10:29:40.385Z,35.66
2022-08-22T10:32:14.394Z,35.41
2022-08-22T10:34:43.459Z,35.35
2022-08-22T10:38:04.067Z,35.48
2022-08-22T10:40:41.628Z,35.67
2022-08-22T10:43:29.225Z,35.63
2022-08-22T10:46:12.692Z,34.97
2022-08-22T10:48:50.879Z,35.10
2022-08-22T10:51:24.122Z,35.17
2022-08-22T10:53:59.587Z,35.25
2022-08-22T10:56:30.028Z,35.51
2022-08-22T10:59:06.602Z,35.90
2022-08-22T11:01:42.299Z,35.69
2022-08-22T11:04:33.148Z,36.35
2022-08-22T11:07:06.279Z,36.59
2022-08-22T11:09:45.219Z,36.66
2022-08-22T11:12:15.134Z,36.06
2022-08-22T11:15:15.507Z,36.45
2022-08-22T11:18:13.090Z,36.68
2022-08-22T11:20:47.843Z,37.24
2022-08-22T11:23:26.011Z,37.19
2022-08-22T11:25:54.104Z,36.91
2022-08-22T11:28:36.083Z,35.92
2022-08-22T11:31:03.769Z,34.98
2022-08-22T11:33:47.430Z,35.06
2022-08-22T11:36:33.529Z,35.10
2022-08-22T11:39:03.339Z,34.95
2022-08-22T11:41:32.762Z,34.69
2022-08-22T11:44:20.143Z,34.50
2022-08-22T11:46:51.193Z,34.00
2022-08-22T11:49:36.354Z,33.63
2022-08-22T11:52:11.421Z,33.42
2022-08-22T11:54:46.527Z,32.97
2022-08-22T11:57:27.862Z,32.69
2022-08-22T12:00:27.294Z,32.38
2022-08-22T12:03:08.401Z,31.88
2022-08-22T12:05:54.075Z,31.93
2022-08-22T12:08:31.127Z,31.81
2022-08-22T12:11:01.396Z,31.60
2022-08-22T12:13:38.882Z,31.60
2022-08-22T12:16:27.124Z,31.59
2022-08-22T12:19:22.876Z,31.44
2022-08-22T12:22:07.697Z,31.24
2022-08-22T12:29:00.794Z,30.87
2022-08-22T12:31:35.080Z,31.37
2022-08-22T12:34:15.534Z,31.64
2022-08-22T12:36:51.224Z,31.35
2022-08-22T12:39:34.420Z,31.22
2022-08-22T12:42:04.254Z,31.39
2022-08-22T12:45:20.381Z,31.29
2022-08-22T12:48:16.792Z,31.28
2022-08-22T12:50:54.283Z,31.05
2022-08-22T12:59:44.484Z,31.30
2022-08-22T13:02:34.006Z,31.03
2022-08-22T13:05:11.046Z,30.83
2022-08-22T13:07:40.772Z,30.73
2022-08-22T13:10:20.072Z,30.56
2022-08-22T13:12:49.557Z,30.55
2022-08-22T13:15:36.194Z,30.42
2022-08-22T13:18:29.610Z,30.18
2022-08-22T13:21:05.211Z,29.97
2022-08-22T13:23:34.369Z,29.83
2022-08-22T13:26:43.307Z,29.68
2022-08-22T13:29:39.614Z,29.60
2022-08-22T13:32:23.442Z,29.49
2022-08-22T13:34:56.629Z,29.38
2022-08-22T13:37:33.660Z,29.30
2022-08-22T13:40:08.394Z,29.23
2022-08-22T13:42:39.990Z,29.05
2022-08-22T13:45:14.958Z,28.91
2022-08-22T13:47:53.726Z,28.90
2022-08-22T13:50:30.066Z,28.93
2022-08-22T13:54:00.594Z,28.89
2022-08-22T13:56:55.469Z,28.85
2022-08-22T14:00:28.698Z,28.80
2022-08-22T14:03:28.443Z,28.75
2022-08-22T15:25:23.199Z,27.69
2022-08-22T15:28:06.991Z,27.49
2022-08-22T15:33:34.930Z,27.29
2022-08-22T15:36:15.862Z,27.21
2022-08-22T15:38:53.168Z,27.16
2022-08-22T15:41:31.556Z,27.08
2022-08-22T15:44:03.830Z,27.01
2022-08-22T15:46:32.337Z,26.93
2022-08-22T15:49:26.088Z,26.86
2022-08-22T15:52:00.726Z,26.77
2022-08-22T15:54:57.021Z,26.76
2022-08-22T15:57:26.348Z,26.73
2022-08-22T16:00:05.179Z,26.72
2022-08-22T16:02:42.018Z,26.69
2022-08-22T16:05:11.691Z,26.58
2022-08-22T16:07:44.856Z,26.49
2022-08-22T16:10:24.229Z,26.45
2022-08-22T16:13:24.518Z,26.42
2022-08-22T16:15:57.168Z,26.33
2022-08-22T16:18:51.363Z,26.27
2022-08-22T16:21:26.922Z,26.20
2022-08-22T16:26:57.697Z,26.12
2022-08-22T16:29:41.288Z,26.08
2022-08-22T16:32:12.424Z,26.03
2022-08-22T16:46:42.037Z,25.44
2022-08-22T16:55:43.731Z,25.18
2022-08-22T16:58:57.523Z,25.13
2022-08-22T17:01:38.313Z,25.05
2022-08-22T17:10:12.393Z,24.96
2022-08-22T17:12:54.142Z,24.92
2022-08-22T17:31:27.371Z,24.71
2022-08-22T17:37:40.468Z,24.60
2022-08-22T17:46:03.644Z,24.35
2022-08-22T18:02:32.482Z,24.06
2022-08-22T18:05:04.015Z,24.06
2022-08-22T18:07:54.647Z,24.05
2022-08-22T18:11:02.706Z,24.02
2022-08-22T18:14:05.001Z,24.01
2022-08-22T18:16:41.029Z,23.99
2022-08-22T18:19:25.505Z,23.92
2022-08-22T18:29:05.296Z,23.80
2022-08-22T18:34:59.169Z,23.75
2022-08-22T18:41:19.926Z,23.59
2022-08-22T18:43:48.467Z,23.58
2022-08-22T18:55:53.471Z,23.55
2022-08-22T19:05:33.104Z,23.51
2022-08-22T19:08:28.820Z,23.46
2022-08-22T19:11:16.223Z,23.47
2022-08-22T19:16:47.160Z,23.45
2022-08-22T19:33:48.121Z,23.28
2022-08-22T19:36:36.882Z,23.22
2022-08-22T19:39:32.669Z,23.15
2022-08-22T19:42:04.351Z,23.09
2022-08-22T19:44:40.989Z,23.03
2022-08-22T19:47:11.595Z,22.96
2022-08-22T19:50:05.419Z,22.93
2022-08-22T19:52:47.219Z,22.88
2022-08-22T19:55:23.282Z,22.82
2022-08-22T20:06:40.833Z,22.80
2022-08-22T20:09:07.769Z,22.79
2022-08-22T20:12:01.660Z,22.77
2022-08-22T20:14:35.189Z,22.76
2022-08-22T20:17:20.467Z,22.75
2022-08-22T20:22:38.956Z,22.71
2022-08-22T20:25:42.291Z,22.72
2022-08-22T20:28:05.297Z,22.78
2022-08-22T20:30:52.043Z,22.78
2022-08-22T20:33:25.322Z,22.73
2022-08-22T20:35:59.647Z,22.70
2022-08-22T20:38:40.185Z,22.65
2022-08-22T20:41:37.614Z,22.62
2022-08-22T20:44:04.673Z,22.60
2022-08-22T20:46:33.326Z,22.56
2022-08-22T20:49:00.685Z,22.54
2022-08-22T20:51:30.368Z,22.54
2022-08-22T20:53:58.665Z,22.59
2022-08-22T20:56:35.800Z,22.57
2022-08-22T20:59:23.284Z,22.55
2022-08-22T21:01:57.955Z,22.54
2022-08-22T21:04:26.016Z,22.47
2022-08-22T21:06:59.134Z,22.42
2022-08-22T21:09:44.691Z,22.40
2022-08-22T21:12:11.877Z,22.33
2022-08-22T21:14:46.282Z,22.26
2022-08-22T21:17:17.642Z,22.20
2022-08-22T21:19:44.607Z,22.12
2022-08-22T21:22:20.063Z,22.03
2022-08-22T21:24:49.878Z,21.94
2022-08-22T21:27:19.267Z,21.88
2022-08-22T21:29:46.319Z,21.84
2022-08-22T21:32:27.383Z,21.78
2022-08-22T21:34:54.616Z,21.74
2022-08-22T21:37:37.990Z,21.68
2022-08-22T21:40:08.308Z,21.64
2022-08-22T21:42:43.736Z,21.63
2022-08-22T21:45:25.893Z,21.61
2022-08-22T21:47:53.174Z,21.59
2022-08-22T21:50:25.471Z,21.58
2022-08-22T21:52:54.986Z,21.57
2022-08-22T21:55:21.891Z,21.56
2022-08-22T21:57:53.120Z,21.54
2022-08-22T22:00:38.966Z,21.53
2022-08-22T22:03:07.412Z,21.50
2022-08-22T22:05:34.342Z,21.48
2022-08-22T22:08:01.431Z,21.42
2022-08-22T22:10:28.582Z,21.40
2022-08-22T22:12:56.480Z,21.36
2022-08-22T22:15:24.365Z,21.29
2022-08-22T22:17:51.316Z,21.24
2022-08-22T22:20:18.974Z,21.25
2022-08-22T22:22:54.457Z,21.23
2022-08-22T22:25:40.998Z,21.19
2022-08-22T22:28:17.028Z,21.14
2022-08-22T22:30:44.326Z,21.11
2022-08-22T22:33:11.371Z,21.09
2022-08-22T22:35:39.288Z,21.06
2022-08-22T22:38:06.687Z,21.04
2022-08-22T22:40:33.846Z,20.95
2022-08-22T22:43:01.063Z,20.91
2022-08-22T22:45:27.982Z,20.86
2022-08-22T22:47:54.959Z,20.86
2022-08-22T22:50:21.903Z,20.82
2022-08-22T22:52:51.526Z,20.82
2022-08-22T22:55:24.175Z,20.76
2022-08-22T22:58:03.182Z,20.75
2022-08-22T23:00:31.504Z,20.72
2022-08-22T23:02:59.424Z,20.69
2022-08-22T23:05:26.317Z,20.65
2022-08-22T23:07:53.189Z,20.66
2022-08-22T23:10:22.186Z,20.65
2022-08-22T23:12:49.331Z,20.60
2022-08-22T23:15:16.888Z,20.63
2022-08-22T23:17:43.942Z,20.60
2022-08-22T23:20:11.048Z,20.57
2022-08-22T23:22:40.678Z,20.57
2022-08-22T23:25:07.676Z,20.53
2022-08-22T23:27:34.755Z,20.50
2022-08-22T23:30:02.501Z,20.52
2022-08-22T23:32:31.393Z,20.51
2022-08-22T23:34:58.484Z,20.50
2022-08-22T23:37:25.390Z,20.47
2022-08-22T23:39:52.603Z,20.44
2022-08-22T23:42:19.603Z,20.43
2022-08-22T23:44:46.580Z,20.41
2022-08-22T23:47:14.051Z,20.43
2022-08-22T23:49:41.492Z,20.39
2022-08-22T23:52:08.812Z,20.35
2022-08-22T23:54:35.872Z,20.35
2022-08-22T23:57:03.526Z,20.31
2022-08-22T23:59:42.338Z,20.31
